sensor_id;sensor_type;location;lat;lon;timestamp;pressure;altitude;pressure_sealevel;temperature;humidity
18201;BME280;9226;47.858;9.594;2023-03-19T00:01:19;94852.53;;;11.30;53.71
18201;BME280;9226;47.858;9.594;2023-03-19T00:03:44;94854.22;;;11.31;53.80
18201;BME280;9226;47.858;9.594;2023-03-19T00:06:10;94859.00;;;11.08;56.24
18201;BME280;9226;47.858;9.594;2023-03-19T00:08:36;94868.22;;;11.14;54.94
18201;BME280;9226;47.858;9.594;2023-03-19T00:11:06;94864.59;;;11.15;54.61
18201;BME280;9226;47.858;9.594;2023-03-19T00:13:31;94862.91;;;11.14;54.91
18201;BME280;9226;47.858;9.594;2023-03-19T00:15:57;94864.75;;;11.13;55.23
18201;BME280;9226;47.858;9.594;2023-03-19T00:18:22;94871.69;;;11.14;55.18
18201;BME280;9226;47.858;9.594;2023-03-19T00:20:47;94872.13;;;11.10;55.21
18201;BME280;9226;47.858;9.594;2023-03-19T00:23:13;94884.72;;;11.08;55.44
18201;BME280;9226;47.858;9.594;2023-03-19T00:25:38;94873.69;;;11.02;55.68
18201;BME280;9226;47.858;9.594;2023-03-19T00:28:03;94875.34;;;10.94;56.00
18201;BME280;9226;47.858;9.594;2023-03-19T00:30:29;94880.94;;;11.00;55.36
18201;BME280;9226;47.858;9.594;2023-03-19T00:32:54;94878.69;;;10.96;55.99
18201;BME280;9226;47.858;9.594;2023-03-19T00:35:19;94883.03;;;10.97;55.90
18201;BME280;9226;47.858;9.594;2023-03-19T00:37:45;94880.25;;;10.98;55.42
18201;BME280;9226;47.858;9.594;2023-03-19T00:40:11;94882.91;;;10.98;55.67
18201;BME280;9226;47.858;9.594;2023-03-19T00:42:36;94899.25;;;10.94;55.80
18201;BME280;9226;47.858;9.594;2023-03-19T00:45:02;94891.69;;;10.89;56.19
18201;BME280;9226;47.858;9.594;2023-03-19T00:47:27;94895.91;;;10.82;56.58
18201;BME280;9226;47.858;9.594;2023-03-19T00:49:53;94896.31;;;10.77;56.77
18201;BME280;9226;47.858;9.594;2023-03-19T00:52:18;94900.63;;;10.78;56.46
18201;BME280;9226;47.858;9.594;2023-03-19T00:54:44;94894.78;;;10.75;57.31
18201;BME280;9226;47.858;9.594;2023-03-19T00:57:09;94903.16;;;10.80;56.37
18201;BME280;9226;47.858;9.594;2023-03-19T00:59:35;94901.22;;;10.82;56.39
18201;BME280;9226;47.858;9.594;2023-03-19T01:02:00;94902.31;;;10.79;56.96
18201;BME280;9226;47.858;9.594;2023-03-19T01:04:25;94899.53;;;10.81;56.65
18201;BME280;9226;47.858;9.594;2023-03-19T01:06:51;94901.22;;;10.82;56.52
18201;BME280;9226;47.858;9.594;2023-03-19T01:09:16;94903.72;;;10.83;56.44
18201;BME280;9226;47.858;9.594;2023-03-19T01:11:42;94902.88;;;10.83;56.57
18201;BME280;9226;47.858;9.594;2023-03-19T01:14:07;94904.28;;;10.87;56.03
18201;BME280;9226;47.858;9.594;2023-03-19T01:16:33;94904.56;;;10.84;56.39
18201;BME280;9226;47.858;9.594;2023-03-19T01:18:59;94898.69;;;10.71;58.02
18201;BME280;9226;47.858;9.594;2023-03-19T01:21:25;94911.50;;;10.46;59.74
18201;BME280;9226;47.858;9.594;2023-03-19T01:23:51;94911.09;;;10.41;60.18
18201;BME280;9226;47.858;9.594;2023-03-19T01:26:16;94903.84;;;10.53;58.60
18201;BME280;9226;47.858;9.594;2023-03-19T01:28:42;94905.09;;;10.58;58.37
18201;BME280;9226;47.858;9.594;2023-03-19T01:31:08;94911.78;;;10.62;58.23
18201;BME280;9226;47.858;9.594;2023-03-19T01:33:34;94912.38;;;10.66;57.90
18201;BME280;9226;47.858;9.594;2023-03-19T01:35:59;94923.00;;;10.66;58.29
18201;BME280;9226;47.858;9.594;2023-03-19T01:38:28;94921.44;;;10.54;59.39
18201;BME280;9226;47.858;9.594;2023-03-19T01:40:53;94917.94;;;10.53;58.83
18201;BME280;9226;47.858;9.594;2023-03-19T01:43:20;94920.31;;;10.56;59.14
18201;BME280;9226;47.858;9.594;2023-03-19T01:45:54;94919.88;;;10.61;58.42
18201;BME280;9226;47.858;9.594;2023-03-19T01:51:10;94924.38;;;10.70;57.76
18201;BME280;9226;47.858;9.594;2023-03-19T01:53:38;94928.03;;;10.69;58.08
18201;BME280;9226;47.858;9.594;2023-03-19T01:56:11;94934.00;;;10.61;58.38
18201;BME280;9226;47.858;9.594;2023-03-19T01:58:40;94934.56;;;10.55;58.81
18201;BME280;9226;47.858;9.594;2023-03-19T02:01:06;94941.97;;;10.61;58.17
18201;BME280;9226;47.858;9.594;2023-03-19T02:03:32;94940.16;;;10.72;57.38
18201;BME280;9226;47.858;9.594;2023-03-19T02:05:58;94940.44;;;10.78;57.11
18201;BME280;9226;47.858;9.594;2023-03-19T02:08:24;94938.38;;;10.82;57.04
18201;BME280;9226;47.858;9.594;2023-03-19T02:10:51;94942.69;;;10.83;57.15
18201;BME280;9226;47.858;9.594;2023-03-19T02:13:20;94948.13;;;10.81;57.44
18201;BME280;9226;47.858;9.594;2023-03-19T02:15:45;94953.72;;;10.88;57.36
18201;BME280;9226;47.858;9.594;2023-03-19T02:18:11;94947.56;;;10.88;57.66
18201;BME280;9226;47.858;9.594;2023-03-19T02:20:45;94947.28;;;10.91;57.76
18201;BME280;9226;47.858;9.594;2023-03-19T02:23:21;94950.53;;;10.94;58.07
18201;BME280;9226;47.858;9.594;2023-03-19T02:26:07;94962.38;;;10.90;58.56
18201;BME280;9226;47.858;9.594;2023-03-19T02:28:34;94959.72;;;10.90;58.30
18201;BME280;9226;47.858;9.594;2023-03-19T02:31:01;94968.25;;;10.94;58.24
18201;BME280;9226;47.858;9.594;2023-03-19T02:33:26;94970.91;;;10.94;58.14
18201;BME280;9226;47.858;9.594;2023-03-19T02:35:52;94967.16;;;10.96;57.92
18201;BME280;9226;47.858;9.594;2023-03-19T02:38:18;94970.75;;;10.95;58.09
18201;BME280;9226;47.858;9.594;2023-03-19T02:40:51;94973.97;;;10.89;58.36
18201;BME280;9226;47.858;9.594;2023-03-19T02:43:20;94966.59;;;10.93;57.20
18201;BME280;9226;47.858;9.594;2023-03-19T02:45:46;94967.97;;;10.87;57.94
18201;BME280;9226;47.858;9.594;2023-03-19T02:48:11;94971.59;;;10.86;57.83
18201;BME280;9226;47.858;9.594;2023-03-19T02:50:36;94971.88;;;10.83;57.81
18201;BME280;9226;47.858;9.594;2023-03-19T02:53:02;94968.78;;;10.78;58.21
18201;BME280;9226;47.858;9.594;2023-03-19T02:55:27;94972.13;;;10.80;57.59
18201;BME280;9226;47.858;9.594;2023-03-19T02:57:53;94977.16;;;10.83;57.53
18201;BME280;9226;47.858;9.594;2023-03-19T03:00:19;94977.03;;;10.84;57.98
18201;BME280;9226;47.858;9.594;2023-03-19T03:02:45;94980.28;;;10.88;57.85
18201;BME280;9226;47.858;9.594;2023-03-19T03:05:11;94982.75;;;10.70;59.20
18201;BME280;9226;47.858;9.594;2023-03-19T03:07:37;94981.38;;;10.76;58.31
18201;BME280;9226;47.858;9.594;2023-03-19T03:10:05;94993.16;;;10.42;61.40
18201;BME280;9226;47.858;9.594;2023-03-19T03:12:31;94993.16;;;10.42;61.37
18201;BME280;9226;47.858;9.594;2023-03-19T03:14:56;94994.59;;;10.25;62.20
18201;BME280;9226;47.858;9.594;2023-03-19T03:17:22;95001.06;;;10.32;60.84
18201;BME280;9226;47.858;9.594;2023-03-19T03:19:48;94998.00;;;10.37;61.16
18201;BME280;9226;47.858;9.594;2023-03-19T03:22:13;95006.41;;;10.42;60.94
18201;BME280;9226;47.858;9.594;2023-03-19T03:24:39;95002.50;;;10.46;60.64
18201;BME280;9226;47.858;9.594;2023-03-19T03:27:04;95013.97;;;10.47;61.21
18201;BME280;9226;47.858;9.594;2023-03-19T03:29:30;95017.06;;;10.52;60.46
18201;BME280;9226;47.858;9.594;2023-03-19T03:31:55;95010.34;;;10.58;60.34
18201;BME280;9226;47.858;9.594;2023-03-19T03:34:20;95015.97;;;10.64;60.06
18201;BME280;9226;47.858;9.594;2023-03-19T03:36:46;95022.81;;;10.67;60.39
18201;BME280;9226;47.858;9.594;2023-03-19T03:39:11;95022.94;;;10.65;60.73
18201;BME280;9226;47.858;9.594;2023-03-19T03:41:38;95024.63;;;10.66;60.91
18201;BME280;9226;47.858;9.594;2023-03-19T03:44:03;95027.97;;;10.68;60.49
18201;BME280;9226;47.858;9.594;2023-03-19T03:46:29;95032.75;;;10.75;60.49
18201;BME280;9226;47.858;9.594;2023-03-19T03:48:54;95039.22;;;10.82;60.20
18201;BME280;9226;47.858;9.594;2023-03-19T03:51:20;95030.84;;;10.86;59.95
18201;BME280;9226;47.858;9.594;2023-03-19T03:53:46;95029.00;;;10.87;60.50
18201;BME280;9226;47.858;9.594;2023-03-19T03:56:11;95023.72;;;10.97;59.65
18201;BME280;9226;47.858;9.594;2023-03-19T03:58:37;95027.19;;;10.97;59.11
18201;BME280;9226;47.858;9.594;2023-03-19T04:01:02;95025.53;;;10.96;58.33
18201;BME280;9226;47.858;9.594;2023-03-19T04:03:28;95028.59;;;10.82;60.66
18201;BME280;9226;47.858;9.594;2023-03-19T04:05:53;95035.50;;;10.54;63.72
18201;BME280;9226;47.858;9.594;2023-03-19T04:08:19;95032.16;;;10.30;65.03
18201;BME280;9226;47.858;9.594;2023-03-19T04:10:44;95033.47;;;10.36;63.53
18201;BME280;9226;47.858;9.594;2023-03-19T04:13:10;95033.41;;;10.57;61.68
18201;BME280;9226;47.858;9.594;2023-03-19T04:15:35;95038.16;;;10.63;61.49
18201;BME280;9226;47.858;9.594;2023-03-19T04:18:01;95036.94;;;10.67;60.71
18201;BME280;9226;47.858;9.594;2023-03-19T04:20:27;95034.59;;;10.84;59.83
18201;BME280;9226;47.858;9.594;2023-03-19T04:22:53;95031.94;;;10.84;60.13
18201;BME280;9226;47.858;9.594;2023-03-19T04:25:18;95036.41;;;10.83;60.50
18201;BME280;9226;47.858;9.594;2023-03-19T04:27:44;95040.59;;;10.96;60.51
18201;BME280;9226;47.858;9.594;2023-03-19T04:30:10;95050.22;;;10.77;61.73
18201;BME280;9226;47.858;9.594;2023-03-19T04:32:36;95050.66;;;10.82;61.12
18201;BME280;9226;47.858;9.594;2023-03-19T04:35:02;95043.97;;;10.88;60.62
18201;BME280;9226;47.858;9.594;2023-03-19T04:37:27;95048.69;;;10.84;61.41
18201;BME280;9226;47.858;9.594;2023-03-19T04:39:53;95049.81;;;10.82;61.71
18201;BME280;9226;47.858;9.594;2023-03-19T04:42:19;95052.06;;;10.86;61.63
18201;BME280;9226;47.858;9.594;2023-03-19T04:44:44;95050.94;;;10.89;61.55
18201;BME280;9226;47.858;9.594;2023-03-19T04:47:10;95049.53;;;10.85;62.06
18201;BME280;9226;47.858;9.594;2023-03-19T04:49:35;95049.16;;;10.90;61.83
18201;BME280;9226;47.858;9.594;2023-03-19T04:52:01;95056.97;;;10.91;61.64
18201;BME280;9226;47.858;9.594;2023-03-19T04:54:26;95059.06;;;10.97;60.88
18201;BME280;9226;47.858;9.594;2023-03-19T04:56:52;95063.53;;;11.07;60.28
18201;BME280;9226;47.858;9.594;2023-03-19T04:59:17;95065.22;;;11.08;60.10
18201;BME280;9226;47.858;9.594;2023-03-19T05:01:43;95057.69;;;11.13;59.78
18201;BME280;9226;47.858;9.594;2023-03-19T05:04:08;95062.03;;;11.14;59.93
18201;BME280;9226;47.858;9.594;2023-03-19T05:06:35;95064.41;;;11.17;59.27
18201;BME280;9226;47.858;9.594;2023-03-19T05:09:02;95066.94;;;11.18;59.12
18201;BME280;9226;47.858;9.594;2023-03-19T05:11:28;95071.09;;;11.21;59.03
18201;BME280;9226;47.858;9.594;2023-03-19T05:13:53;95071.84;;;11.23;57.78
18201;BME280;9226;47.858;9.594;2023-03-19T05:16:18;95075.31;;;11.33;57.34
18201;BME280;9226;47.858;9.594;2023-03-19T05:18:44;95077.97;;;11.33;57.34
18201;BME280;9226;47.858;9.594;2023-03-19T05:21:10;95080.22;;;11.38;56.85
18201;BME280;9226;47.858;9.594;2023-03-19T05:23:36;95091.41;;;11.41;56.48
18201;BME280;9226;47.858;9.594;2023-03-19T05:26:01;95088.31;;;11.46;56.31
18201;BME280;9226;47.858;9.594;2023-03-19T05:28:27;95090.84;;;11.48;56.48
18201;BME280;9226;47.858;9.594;2023-03-19T05:30:52;95097.16;;;11.47;56.42
18201;BME280;9226;47.858;9.594;2023-03-19T05:33:18;95105.53;;;11.52;56.40
18201;BME280;9226;47.858;9.594;2023-03-19T05:35:43;95102.63;;;11.55;56.34
18201;BME280;9226;47.858;9.594;2023-03-19T05:38:10;95104.16;;;11.57;56.22
18201;BME280;9226;47.858;9.594;2023-03-19T05:40:35;95108.34;;;11.60;56.23
18201;BME280;9226;47.858;9.594;2023-03-19T05:43:01;95111.81;;;11.61;56.31
18201;BME280;9226;47.858;9.594;2023-03-19T05:45:26;95101.66;;;11.56;56.32
18201;BME280;9226;47.858;9.594;2023-03-19T05:47:52;95108.06;;;11.53;56.53
18201;BME280;9226;47.858;9.594;2023-03-19T05:50:18;95105.97;;;11.57;56.12
18201;BME280;9226;47.858;9.594;2023-03-19T05:52:43;95112.69;;;11.61;56.04
18201;BME280;9226;47.858;9.594;2023-03-19T05:55:09;95111.69;;;11.62;56.11
18201;BME280;9226;47.858;9.594;2023-03-19T05:57:34;95119.09;;;11.68;55.69
18201;BME280;9226;47.858;9.594;2023-03-19T06:00:00;95121.22;;;11.74;55.62
18201;BME280;9226;47.858;9.594;2023-03-19T06:02:26;95118.97;;;11.80;55.47
18201;BME280;9226;47.858;9.594;2023-03-19T06:04:51;95113.94;;;11.86;55.46
18201;BME280;9226;47.858;9.594;2023-03-19T06:07:17;95129.47;;;11.91;55.31
18201;BME280;9226;47.858;9.594;2023-03-19T06:09:42;95120.69;;;12.00;55.19
18201;BME280;9226;47.858;9.594;2023-03-19T06:12:07;95121.78;;;12.07;55.10
18201;BME280;9226;47.858;9.594;2023-03-19T06:14:33;95126.53;;;12.13;54.76
18201;BME280;9226;47.858;9.594;2023-03-19T06:16:58;95135.47;;;12.22;54.80
18201;BME280;9226;47.858;9.594;2023-03-19T06:19:23;95130.84;;;12.34;54.48
18201;BME280;9226;47.858;9.594;2023-03-19T06:21:50;95138.94;;;12.42;53.98
18201;BME280;9226;47.858;9.594;2023-03-19T06:24:16;95134.84;;;12.58;53.56
18201;BME280;9226;47.858;9.594;2023-03-19T06:26:42;95137.50;;;12.58;53.40
18201;BME280;9226;47.858;9.594;2023-03-19T06:29:07;95146.28;;;12.68;53.40
18201;BME280;9226;47.858;9.594;2023-03-19T06:31:32;95142.91;;;12.76;53.23
18201;BME280;9226;47.858;9.594;2023-03-19T06:33:58;95150.47;;;12.80;53.28
18201;BME280;9226;47.858;9.594;2023-03-19T06:36:23;95145.66;;;12.94;53.09
18201;BME280;9226;47.858;9.594;2023-03-19T06:38:50;95149.97;;;13.05;52.78
18201;BME280;9226;47.858;9.594;2023-03-19T06:41:15;95145.47;;;13.05;52.94
18201;BME280;9226;47.858;9.594;2023-03-19T06:43:40;95150.06;;;13.13;53.15
18201;BME280;9226;47.858;9.594;2023-03-19T06:46:07;95145.47;;;13.33;52.99
18201;BME280;9226;47.858;9.594;2023-03-19T06:48:34;95143.47;;;13.45;52.84
18201;BME280;9226;47.858;9.594;2023-03-19T06:50:59;95143.41;;;13.72;52.28
18201;BME280;9226;47.858;9.594;2023-03-19T06:53:26;95143.13;;;13.93;51.82
18201;BME280;9226;47.858;9.594;2023-03-19T06:55:52;95152.78;;;14.13;51.71
18201;BME280;9226;47.858;9.594;2023-03-19T06:58:17;95148.09;;;14.33;50.80
18201;BME280;9226;47.858;9.594;2023-03-19T07:00:43;95152.91;;;14.47;50.80
18201;BME280;9226;47.858;9.594;2023-03-19T07:03:08;95152.28;;;14.53;51.06
18201;BME280;9226;47.858;9.594;2023-03-19T07:05:34;95148.66;;;14.62;51.23
18201;BME280;9226;47.858;9.594;2023-03-19T07:08:00;95140.91;;;14.69;51.21
18201;BME280;9226;47.858;9.594;2023-03-19T07:10:25;95142.66;;;14.87;50.98
18201;BME280;9226;47.858;9.594;2023-03-19T07:12:51;95149.75;;;15.04;50.74
18201;BME280;9226;47.858;9.594;2023-03-19T07:15:16;95153.94;;;15.07;50.57
18201;BME280;9226;47.858;9.594;2023-03-19T07:17:47;95155.34;;;15.19;51.45
18201;BME280;9226;47.858;9.594;2023-03-19T07:20:14;95160.34;;;15.22;51.26
18201;BME280;9226;47.858;9.594;2023-03-19T07:22:40;95156.44;;;15.43;50.91
18201;BME280;9226;47.858;9.594;2023-03-19T07:25:06;95156.16;;;15.62;50.43
18201;BME280;9226;47.858;9.594;2023-03-19T07:27:31;95154.56;;;15.78;50.04
18201;BME280;9226;47.858;9.594;2023-03-19T07:29:57;95160.94;;;16.01;48.53
18201;BME280;9226;47.858;9.594;2023-03-19T07:32:22;95162.97;;;16.24;48.29
18201;BME280;9226;47.858;9.594;2023-03-19T07:34:48;95160.31;;;16.40;47.78
18201;BME280;9226;47.858;9.594;2023-03-19T07:37:13;95161.63;;;16.61;47.39
18201;BME280;9226;47.858;9.594;2023-03-19T07:39:39;95168.50;;;16.72;46.59
18201;BME280;9226;47.858;9.594;2023-03-19T07:42:05;95160.97;;;16.67;47.12
18201;BME280;9226;47.858;9.594;2023-03-19T07:44:30;95165.31;;;16.60;47.77
18201;BME280;9226;47.858;9.594;2023-03-19T07:46:56;95160.66;;;16.37;48.46
18201;BME280;9226;47.858;9.594;2023-03-19T07:49:22;95167.53;;;16.40;48.05
18201;BME280;9226;47.858;9.594;2023-03-19T07:51:47;95167.66;;;16.30;48.56
18201;BME280;9226;47.858;9.594;2023-03-19T07:54:13;95176.22;;;16.34;48.49
18201;BME280;9226;47.858;9.594;2023-03-19T07:56:38;95169.66;;;16.36;47.95
18201;BME280;9226;47.858;9.594;2023-03-19T07:59:04;95164.97;;;16.30;47.65
18201;BME280;9226;47.858;9.594;2023-03-19T08:01:30;95155.44;;;16.11;47.82
18201;BME280;9226;47.858;9.594;2023-03-19T08:03:56;95167.81;;;16.28;47.58
18201;BME280;9226;47.858;9.594;2023-03-19T08:06:21;95164.16;;;16.30;47.64
18201;BME280;9226;47.858;9.594;2023-03-19T08:08:47;95172.00;;;16.39;47.04
18201;BME280;9226;47.858;9.594;2023-03-19T08:11:13;95170.84;;;16.42;45.17
18201;BME280;9226;47.858;9.594;2023-03-19T08:13:39;95172.69;;;16.50;44.82
18201;BME280;9226;47.858;9.594;2023-03-19T08:16:04;95175.88;;;16.53;44.22
18201;BME280;9226;47.858;9.594;2023-03-19T08:18:30;95176.72;;;16.37;43.79
18201;BME280;9226;47.858;9.594;2023-03-19T08:20:55;95182.22;;;16.69;44.03
18201;BME280;9226;47.858;9.594;2023-03-19T08:23:21;95176.69;;;16.70;44.69
18201;BME280;9226;47.858;9.594;2023-03-19T08:25:47;95171.00;;;16.65;44.70
18201;BME280;9226;47.858;9.594;2023-03-19T08:28:15;95182.41;;;16.67;43.86
18201;BME280;9226;47.858;9.594;2023-03-19T08:30:41;95179.69;;;16.75;43.57
18201;BME280;9226;47.858;9.594;2023-03-19T08:33:06;95180.88;;;16.73;43.44
18201;BME280;9226;47.858;9.594;2023-03-19T08:35:33;95186.06;;;16.66;43.89
18201;BME280;9226;47.858;9.594;2023-03-19T08:37:58;95182.75;;;16.56;43.75
18201;BME280;9226;47.858;9.594;2023-03-19T08:40:24;95180.53;;;16.43;43.21
18201;BME280;9226;47.858;9.594;2023-03-19T08:42:49;95182.91;;;16.62;44.35
18201;BME280;9226;47.858;9.594;2023-03-19T08:45:15;95183.72;;;16.63;44.31
18201;BME280;9226;47.858;9.594;2023-03-19T08:47:41;95180.69;;;16.74;44.54
18201;BME280;9226;47.858;9.594;2023-03-19T08:50:07;95182.41;;;16.67;43.66
18201;BME280;9226;47.858;9.594;2023-03-19T08:52:33;95185.25;;;16.57;43.57
18201;BME280;9226;47.858;9.594;2023-03-19T08:54:59;95189.41;;;16.68;43.94
18201;BME280;9226;47.858;9.594;2023-03-19T08:57:24;95184.59;;;16.63;43.80
18201;BME280;9226;47.858;9.594;2023-03-19T08:59:51;95176.22;;;16.50;43.74
18201;BME280;9226;47.858;9.594;2023-03-19T09:02:16;95184.41;;;16.57;43.91
18201;BME280;9226;47.858;9.594;2023-03-19T09:04:42;95180.38;;;16.36;43.00
18201;BME280;9226;47.858;9.594;2023-03-19T09:07:08;95183.06;;;16.20;44.13
18201;BME280;9226;47.858;9.594;2023-03-19T09:09:38;95185.03;;;16.09;44.04
18201;BME280;9226;47.858;9.594;2023-03-19T09:12:05;95180.81;;;15.90;43.84
18201;BME280;9226;47.858;9.594;2023-03-19T09:14:32;95181.03;;;15.97;43.76
18201;BME280;9226;47.858;9.594;2023-03-19T09:16:57;95179.50;;;15.95;43.93
18201;BME280;9226;47.858;9.594;2023-03-19T09:19:22;95184.69;;;15.88;44.09
18201;BME280;9226;47.858;9.594;2023-03-19T09:21:48;95175.72;;;15.54;44.49
18201;BME280;9226;47.858;9.594;2023-03-19T09:24:14;95176.66;;;15.88;44.72
18201;BME280;9226;47.858;9.594;2023-03-19T09:26:39;95175.25;;;15.76;44.12
18201;BME280;9226;47.858;9.594;2023-03-19T09:29:05;95169.34;;;15.64;43.81
18201;BME280;9226;47.858;9.594;2023-03-19T09:31:31;95176.22;;;15.58;44.10
18201;BME280;9226;47.858;9.594;2023-03-19T09:33:56;95174.03;;;15.53;44.56
18201;BME280;9226;47.858;9.594;2023-03-19T09:36:22;95173.56;;;15.66;43.89
18201;BME280;9226;47.858;9.594;2023-03-19T09:38:47;95168.53;;;15.71;43.31
18201;BME280;9226;47.858;9.594;2023-03-19T09:46:34;95156.59;;;15.92;42.91
18201;BME280;9226;47.858;9.594;2023-03-19T09:54:43;95160.28;;;16.16;42.65
18201;BME280;9226;47.858;9.594;2023-03-19T09:57:10;95154.44;;;16.20;43.06
18201;BME280;9226;47.858;9.594;2023-03-19T09:59:37;95153.25;;;16.06;43.95
18201;BME280;9226;47.858;9.594;2023-03-19T10:10:38;95139.34;;;16.77;42.37
18201;BME280;9226;47.858;9.594;2023-03-19T10:15:36;95139.84;;;16.97;41.05
18201;BME280;9226;47.858;9.594;2023-03-19T10:18:20;95133.78;;;17.11;40.33
18201;BME280;9226;47.858;9.594;2023-03-19T10:26:19;95134.31;;;18.09;39.19
18201;BME280;9226;47.858;9.594;2023-03-19T10:28:55;95142.63;;;18.37;38.32
18201;BME280;9226;47.858;9.594;2023-03-19T10:34:17;95138.53;;;18.65;37.23
18201;BME280;9226;47.858;9.594;2023-03-19T10:36:44;95132.31;;;18.87;37.17
18201;BME280;9226;47.858;9.594;2023-03-19T10:39:15;95140.50;;;18.71;37.13
18201;BME280;9226;47.858;9.594;2023-03-19T10:41:48;95128.25;;;18.83;37.42
18201;BME280;9226;47.858;9.594;2023-03-19T10:44:26;95131.56;;;19.23;37.45
18201;BME280;9226;47.858;9.594;2023-03-19T10:46:56;95126.16;;;19.53;37.42
18201;BME280;9226;47.858;9.594;2023-03-19T10:49:22;95126.94;;;19.17;36.17
18201;BME280;9226;47.858;9.594;2023-03-19T10:51:47;95126.34;;;20.03;35.65
18201;BME280;9226;47.858;9.594;2023-03-19T10:54:22;95127.66;;;20.78;35.75
18201;BME280;9226;47.858;9.594;2023-03-19T10:56:49;95129.78;;;21.11;34.02
18201;BME280;9226;47.858;9.594;2023-03-19T10:59:22;95126.47;;;21.16;33.31
18201;BME280;9226;47.858;9.594;2023-03-19T11:01:48;95114.56;;;21.39;32.76
18201;BME280;9226;47.858;9.594;2023-03-19T11:04:18;95120.50;;;21.21;32.09
18201;BME280;9226;47.858;9.594;2023-03-19T11:06:52;95117.13;;;21.54;32.60
18201;BME280;9226;47.858;9.594;2023-03-19T11:11:53;95114.91;;;21.64;32.00
18201;BME280;9226;47.858;9.594;2023-03-19T11:14:33;95113.81;;;20.82;32.30
18201;BME280;9226;47.858;9.594;2023-03-19T11:19:48;95118.38;;;21.16;32.86
18201;BME280;9226;47.858;9.594;2023-03-19T11:22:20;95114.84;;;21.15;32.54
18201;BME280;9226;47.858;9.594;2023-03-19T11:24:55;95113.19;;;21.14;32.56
18201;BME280;9226;47.858;9.594;2023-03-19T11:27:32;95098.00;;;20.78;33.01
18201;BME280;9226;47.858;9.594;2023-03-19T11:29:59;95101.53;;;21.14;33.56
18201;BME280;9226;47.858;9.594;2023-03-19T11:35:29;95104.78;;;20.46;33.46
18201;BME280;9226;47.858;9.594;2023-03-19T11:38:01;95093.81;;;21.04;33.52
18201;BME280;9226;47.858;9.594;2023-03-19T11:40:56;95103.03;;;21.58;33.42
18201;BME280;9226;47.858;9.594;2023-03-19T11:51:50;95084.88;;;21.87;31.24
18201;BME280;9226;47.858;9.594;2023-03-19T11:54:36;95083.78;;;21.33;32.42
18201;BME280;9226;47.858;9.594;2023-03-19T11:57:11;95086.56;;;22.01;31.78
18201;BME280;9226;47.858;9.594;2023-03-19T12:02:29;95079.97;;;22.77;31.01
18201;BME280;9226;47.858;9.594;2023-03-19T12:05:27;95072.47;;;22.86;29.90
18201;BME280;9226;47.858;9.594;2023-03-19T12:13:37;95065.88;;;23.47;30.86
18201;BME280;9226;47.858;9.594;2023-03-19T12:16:27;95071.19;;;23.02;29.85
18201;BME280;9226;47.858;9.594;2023-03-19T12:24:36;95070.38;;;22.82;29.85
18201;BME280;9226;47.858;9.594;2023-03-19T12:29:55;95065.38;;;22.18;31.70
18201;BME280;9226;47.858;9.594;2023-03-19T12:35:28;95059.09;;;21.84;31.47
18201;BME280;9226;47.858;9.594;2023-03-19T12:38:04;95047.84;;;21.74;31.17
18201;BME280;9226;47.858;9.594;2023-03-19T12:40:48;95049.72;;;21.67;32.30
18201;BME280;9226;47.858;9.594;2023-03-19T12:43:36;95047.28;;;21.85;32.53
18201;BME280;9226;47.858;9.594;2023-03-19T12:46:15;95045.59;;;21.78;31.93
18201;BME280;9226;47.858;9.594;2023-03-19T12:48:52;95045.41;;;21.93;32.21
18201;BME280;9226;47.858;9.594;2023-03-19T12:51:24;95037.91;;;21.95;32.21
18201;BME280;9226;47.858;9.594;2023-03-19T12:54:04;95039.78;;;21.88;31.99
18201;BME280;9226;47.858;9.594;2023-03-19T12:59:03;95039.75;;;21.74;32.38
18201;BME280;9226;47.858;9.594;2023-03-19T13:01:36;95042.41;;;21.61;32.04
18201;BME280;9226;47.858;9.594;2023-03-19T13:04:13;95035.97;;;21.07;32.04
18201;BME280;9226;47.858;9.594;2023-03-19T13:06:52;95028.16;;;21.25;32.65
18201;BME280;9226;47.858;9.594;2023-03-19T13:09:27;95023.19;;;21.29;32.37
18201;BME280;9226;47.858;9.594;2023-03-19T13:17:27;95026.63;;;21.09;32.57
18201;BME280;9226;47.858;9.594;2023-03-19T13:19:57;95020.84;;;20.77;32.29
18201;BME280;9226;47.858;9.594;2023-03-19T13:22:26;95026.34;;;20.63;32.59
18201;BME280;9226;47.858;9.594;2023-03-19T13:24:54;95027.31;;;20.55;32.47
18201;BME280;9226;47.858;9.594;2023-03-19T13:27:32;95021.31;;;20.53;32.64
18201;BME280;9226;47.858;9.594;2023-03-19T13:32:41;95026.19;;;20.42;33.18
18201;BME280;9226;47.858;9.594;2023-03-19T13:38:02;95017.16;;;20.29;33.55
18201;BME280;9226;47.858;9.594;2023-03-19T13:40:44;95017.56;;;19.97;34.28
18201;BME280;9226;47.858;9.594;2023-03-19T13:43:39;95012.09;;;20.12;34.39
18201;BME280;9226;47.858;9.594;2023-03-19T13:56:09;95014.50;;;19.64;34.84
18201;BME280;9226;47.858;9.594;2023-03-19T13:58:45;95013.00;;;19.40;34.99
18201;BME280;9226;47.858;9.594;2023-03-19T14:03:55;95017.75;;;19.38;34.70
18201;BME280;9226;47.858;9.594;2023-03-19T14:06:42;95011.88;;;19.12;34.30
18201;BME280;9226;47.858;9.594;2023-03-19T14:09:38;95012.34;;;19.01;35.47
18201;BME280;9226;47.858;9.594;2023-03-19T14:14:48;95010.50;;;19.02;35.54
18201;BME280;9226;47.858;9.594;2023-03-19T14:17:35;95008.25;;;19.05;35.83
18201;BME280;9226;47.858;9.594;2023-03-19T14:25:26;95006.81;;;19.39;35.51
18201;BME280;9226;47.858;9.594;2023-03-19T14:27:56;94999.56;;;19.40;35.48
18201;BME280;9226;47.858;9.594;2023-03-19T14:30:29;94997.41;;;19.50;36.06
18201;BME280;9226;47.858;9.594;2023-03-19T14:32:56;95007.78;;;19.53;35.56
18201;BME280;9226;47.858;9.594;2023-03-19T14:35:24;95006.88;;;19.46;35.33
18201;BME280;9226;47.858;9.594;2023-03-19T14:37:51;94992.81;;;19.29;36.10
18201;BME280;9226;47.858;9.594;2023-03-19T14:40:23;95003.94;;;19.26;36.00
18201;BME280;9226;47.858;9.594;2023-03-19T14:43:10;95006.06;;;19.30;36.24
18201;BME280;9226;47.858;9.594;2023-03-19T14:45:56;95000.44;;;19.25;36.07
18201;BME280;9226;47.858;9.594;2023-03-19T14:56:50;95000.78;;;19.59;35.89
18201;BME280;9226;47.858;9.594;2023-03-19T14:59:15;95007.41;;;19.56;35.54
18201;BME280;9226;47.858;9.594;2023-03-19T15:01:48;95000.03;;;19.65;35.75
18201;BME280;9226;47.858;9.594;2023-03-19T15:04:15;95006.03;;;19.67;35.61
18201;BME280;9226;47.858;9.594;2023-03-19T15:06:52;94997.88;;;19.75;35.24